Time;durP1;ratioP1;P1;durP2;ratioP2;P2;SDS_P1;SDS_P2;PMS_P1;PMS_P2;Temp;Humidity;BMP_temperature;BMP_pressure;BME280_temperature;BME280_humidity;BME280_pressure;Samples;Min_cycle;Max_cycle;Signal;HPM_P1;HPM_P2
2022/09/13 00:01:58;;;;;;;;;;;;;;;14.53;100.00;100706.94;4995050;28;20016;-81
2022/09/13 00:04:25;;;;;;;;;;;;;;;14.01;100.00;100715.56;4990952;28;20012;-83
2022/09/13 00:06:53;;;;;;;;;;;;;;;14.23;100.00;100709.69;4995581;28;19921;-83
2022/09/13 00:09:20;;;;;;;;;;;;;;;14.43;100.00;100721.66;4995125;28;20299;-82
2022/09/13 00:11:59;;;;;;;;;;;;;;;14.63;100.00;100724.00;4996050;28;19921;-83
2022/09/13 00:14:30;;;;;;;;;;;;;;;14.75;100.00;100717.84;4994139;28;20017;-79
2022/09/13 00:16:56;;;;;;;;;;;;;;;14.77;100.00;100710.44;5000365;28;20020;-79
2022/09/13 00:19:24;;;;;;;;;;;;;;;14.64;100.00;100716.81;4994649;28;19957;-83
2022/09/13 00:21:56;;;;;;;;;;;;;;;14.59;100.00;100714.03;4994886;28;19983;-80
2022/09/13 00:24:27;;;;;;;;;;;;;;;14.49;100.00;100717.22;4995486;28;19932;-79
2022/09/13 00:26:56;;;;;;;;;;;;;;;14.11;100.00;100720.34;4995067;28;19922;-79
2022/09/13 00:29:37;;;;;;;;;;;;;;;14.46;100.00;100712.34;4994825;28;20298;-81
2022/09/13 00:32:06;;;;;;;;;;;;;;;14.18;100.00;100713.03;5003970;28;19921;-83
2022/09/13 00:34:34;;;;;;;;;;;;;;;13.97;100.00;100712.50;4995045;28;19957;-79
2022/09/13 00:37:07;;;;;;;;;;;;;;;13.90;100.00;100711.00;4994864;28;19952;-83
2022/09/13 00:39:38;;;;;;;;;;;;;;;13.58;100.00;100711.22;4995126;28;19988;-80
2022/09/13 00:42:10;;;;;;;;;;;;;;;13.96;100.00;100710.88;4994488;28;19980;-84
2022/09/13 00:45:01;;;;;;;;;;;;;;;14.10;100.00;100702.66;4994470;28;19932;-79
2022/09/13 00:47:33;;;;;;;;;;;;;;;14.54;100.00;100708.56;4990702;28;20330;-79
2022/09/13 00:50:02;;;;;;;;;;;;;;;14.41;100.00;100709.56;4994868;28;19960;-83
2022/09/13 00:52:32;;;;;;;;;;;;;;;13.92;100.00;100709.72;4994456;28;20035;-84
2022/09/13 00:55:04;;;;;;;;;;;;;;;14.07;100.00;100701.28;4994143;28;19926;-82
2022/09/13 00:57:34;;;;;;;;;;;;;;;14.17;100.00;100700.72;4992981;28;19922;-82
2022/09/13 01:00:10;;;;;;;;;;;;;;;14.24;100.00;100706.75;4994346;28;20366;-79
2022/09/13 01:02:39;;;;;;;;;;;;;;;14.09;100.00;100712.53;4994845;28;20338;-83
2022/09/13 01:05:09;;;;;;;;;;;;;;;14.08;100.00;100704.75;4994395;28;19957;-80
2022/09/13 01:07:46;;;;;;;;;;;;;;;14.11;100.00;100702.44;4985580;28;19922;-80
2022/09/13 01:10:19;;;;;;;;;;;;;;;14.27;100.00;100703.63;4994579;28;19921;-82
2022/09/13 01:12:52;;;;;;;;;;;;;;;13.72;100.00;100701.19;4994701;28;19965;-83
2022/09/13 01:15:19;;;;;;;;;;;;;;;14.21;100.00;100702.69;4994612;28;20291;-79
2022/09/13 01:17:50;;;;;;;;;;;;;;;14.08;100.00;100700.22;4993362;28;20434;-83
2022/09/13 01:20:29;;;;;;;;;;;;;;;13.70;100.00;100712.06;4994556;28;19922;-81
2022/09/13 01:23:22;;;;;;;;;;;;;;;14.06;100.00;100713.00;4994521;28;19999;-83
2022/09/13 01:26:10;;;;;;;;;;;;;;;13.71;100.00;100710.22;4989766;28;19922;-83
2022/09/13 01:28:46;;;;;;;;;;;;;;;14.09;100.00;100701.03;4993266;28;19997;-80
2022/09/13 01:31:22;;;;;;;;;;;;;;;14.08;100.00;100702.09;4993957;28;19932;-80
2022/09/13 01:33:57;;;;;;;;;;;;;;;14.12;100.00;100700.59;4994017;28;19921;-83
2022/09/13 01:36:39;;;;;;;;;;;;;;;13.75;100.00;100706.06;4994428;28;20021;-83
2022/09/13 01:39:08;;;;;;;;;;;;;;;13.90;100.00;100703.78;4994291;28;19928;-79
2022/09/13 01:41:49;;;;;;;;;;;;;;;13.94;100.00;100712.16;4994351;28;19992;-82
2022/09/13 01:44:26;;;;;;;;;;;;;;;13.96;100.00;100710.06;4989730;28;20016;-83
2022/09/13 01:46:59;;;;;;;;;;;;;;;14.11;100.00;100705.13;4987819;28;19949;-79
2022/09/13 01:49:32;;;;;;;;;;;;;;;13.63;100.00;100705.22;4993038;28;19928;-79
2022/09/13 01:52:04;;;;;;;;;;;;;;;13.56;100.00;100705.31;4993625;28;19925;-79
2022/09/13 01:54:40;;;;;;;;;;;;;;;13.85;100.00;100706.31;4993971;28;20256;-83
2022/09/13 01:57:22;;;;;;;;;;;;;;;13.73;100.00;100694.78;4992186;28;19973;-83
2022/09/13 01:59:51;;;;;;;;;;;;;;;13.86;100.00;100702.63;4988013;28;19922;-82
2022/09/13 02:02:27;;;;;;;;;;;;;;;13.44;100.00;100686.56;5147197;23;19960;-80
2022/09/13 02:04:59;;;;;;;;;;;;;;;13.00;100.00;100696.50;5053196;28;19921;-83
2022/09/13 02:07:32;;;;;;;;;;;;;;;13.22;100.00;100693.38;5043795;28;20012;-85
2022/09/13 02:10:00;;;;;;;;;;;;;;;13.08;100.00;100695.41;5049585;28;19921;-79
2022/09/13 02:12:28;;;;;;;;;;;;;;;13.71;100.00;100692.38;5050533;28;19987;-83
2022/09/13 02:14:58;;;;;;;;;;;;;;;13.86;100.00;100697.28;5044711;28;20353;-79
2022/09/13 02:17:30;;;;;;;;;;;;;;;13.72;100.00;100695.84;5045081;28;19928;-83
2022/09/13 02:19:59;;;;;;;;;;;;;;;13.63;100.00;100699.88;5042626;28;19964;-79
2022/09/13 02:22:27;;;;;;;;;;;;;;;13.49;100.00;100696.56;5050615;28;20414;-83
2022/09/13 02:24:56;;;;;;;;;;;;;;;13.37;100.00;100696.50;5051439;28;19931;-82
2022/09/13 02:27:24;;;;;;;;;;;;;;;13.38;100.00;100692.00;5046376;28;19998;-82
2022/09/13 02:29:53;;;;;;;;;;;;;;;13.47;100.00;100698.66;5055389;28;20337;-83
2022/09/13 02:32:21;;;;;;;;;;;;;;;12.89;100.00;100694.59;5039286;28;20023;-79
2022/09/13 02:34:52;;;;;;;;;;;;;;;13.34;100.00;100688.94;5052164;28;19924;-83
2022/09/13 02:37:20;;;;;;;;;;;;;;;13.04;100.00;100694.19;5055024;28;20013;-82
2022/09/13 02:39:49;;;;;;;;;;;;;;;12.91;100.00;100689.03;5045433;28;20447;-79
2022/09/13 02:42:17;;;;;;;;;;;;;;;12.99;100.00;100686.88;5047695;28;19921;-83
2022/09/13 02:44:45;;;;;;;;;;;;;;;13.03;100.00;100695.25;5043423;28;19968;-80
2022/09/13 02:47:20;;;;;;;;;;;;;;;12.95;100.00;100690.19;5050525;28;20015;-79
2022/09/13 02:49:50;;;;;;;;;;;;;;;12.96;100.00;100700.66;5039987;28;19998;-80
2022/09/13 02:52:24;;;;;;;;;;;;;;;12.92;100.00;100691.47;5044950;28;19928;-83
2022/09/13 02:54:53;;;;;;;;;;;;;;;13.06;100.00;100698.28;5047761;28;20015;-83
2022/09/13 02:57:21;;;;;;;;;;;;;;;12.96;100.00;100697.97;5047917;28;19930;-80
2022/09/13 02:59:48;;;;;;;;;;;;;;;12.98;100.00;100701.25;5038969;28;20011;-83
2022/09/13 03:02:16;;;;;;;;;;;;;;;12.44;100.00;100694.81;5047266;28;19931;-82
2022/09/13 03:04:42;;;;;;;;;;;;;;;12.77;100.00;100705.16;5046481;28;19931;-80
2022/09/13 03:07:10;;;;;;;;;;;;;;;12.53;100.00;100703.34;5044506;28;19920;-82
2022/09/13 03:09:40;;;;;;;;;;;;;;;12.47;100.00;100702.38;5046554;28;20007;-79
2022/09/13 03:12:22;;;;;;;;;;;;;;;12.74;100.00;100700.28;5045835;28;20027;-79
2022/09/13 03:14:52;;;;;;;;;;;;;;;12.95;100.00;100706.19;5048363;28;19921;-79
2022/09/13 03:17:29;;;;;;;;;;;;;;;12.92;100.00;100696.81;5036024;28;20012;-82
2022/09/13 03:20:14;;;;;;;;;;;;;;;12.73;100.00;100689.81;5036538;28;20008;-82
2022/09/13 03:23:07;;;;;;;;;;;;;;;12.30;100.00;100693.28;5036827;28;20028;-83
2022/09/13 03:25:41;;;;;;;;;;;;;;;12.65;100.00;100693.59;5048071;28;20399;-79
2022/09/13 03:28:12;;;;;;;;;;;;;;;12.74;100.00;100694.13;5035974;28;20004;-83
2022/09/13 03:30:42;;;;;;;;;;;;;;;12.64;100.00;100696.47;5035349;28;20350;-79
2022/09/13 03:33:16;;;;;;;;;;;;;;;12.71;100.00;100690.06;5042828;28;20007;-81
2022/09/13 03:35:47;;;;;;;;;;;;;;;12.61;100.00;100689.72;5044951;28;19920;-79
2022/09/13 03:38:17;;;;;;;;;;;;;;;12.23;100.00;100701.34;5039150;28;19928;-82
2022/09/13 03:40:48;;;;;;;;;;;;;;;12.26;100.00;100700.09;5035562;28;20008;-80
2022/09/13 03:43:18;;;;;;;;;;;;;;;12.41;100.00;100700.59;5046590;28;19921;-80
2022/09/13 03:45:47;;;;;;;;;;;;;;;12.67;100.00;100696.03;5036421;28;19931;-79
2022/09/13 03:48:14;;;;;;;;;;;;;;;12.78;100.00;100695.31;5046464;28;19931;-79
2022/09/13 03:50:41;;;;;;;;;;;;;;;12.92;100.00;100687.97;5051545;28;19947;-82
2022/09/13 03:53:10;;;;;;;;;;;;;;;12.86;100.00;100686.19;5051868;28;19921;-79
2022/09/13 03:55:39;;;;;;;;;;;;;;;12.78;100.00;100690.78;5053987;28;19931;-82
2022/09/13 03:58:07;;;;;;;;;;;;;;;12.79;100.00;100694.25;5053428;28;19931;-82
2022/09/13 04:00:33;;;;;;;;;;;;;;;12.69;100.00;100694.78;5053463;28;19927;-82
2022/09/13 04:03:00;;;;;;;;;;;;;;;12.76;100.00;100695.50;5033069;28;20261;-79
2022/09/13 04:05:26;;;;;;;;;;;;;;;12.80;100.00;100701.25;5034542;28;19921;-81
2022/09/13 04:07:53;;;;;;;;;;;;;;;12.63;100.00;100703.66;5029931;28;19928;-82
2022/09/13 04:10:20;;;;;;;;;;;;;;;12.80;100.00;100695.91;5033033;28;19925;-79
2022/09/13 04:12:48;;;;;;;;;;;;;;;12.80;100.00;100704.72;5025452;28;19955;-82
2022/09/13 04:15:16;;;;;;;;;;;;;;;12.93;100.00;100705.63;5024593;28;19921;-83
2022/09/13 04:17:42;;;;;;;;;;;;;;;13.05;100.00;100699.31;5027306;28;19928;-79
2022/09/13 04:20:10;;;;;;;;;;;;;;;13.23;100.00;100701.16;5020852;28;19925;-80
2022/09/13 04:22:37;;;;;;;;;;;;;;;12.91;100.00;100699.69;5024548;28;19921;-80
2022/09/13 04:25:04;;;;;;;;;;;;;;;12.86;100.00;100703.03;5025288;28;19921;-79
2022/09/13 04:27:30;;;;;;;;;;;;;;;12.78;100.00;100700.63;5024128;28;19928;-84
2022/09/13 04:29:57;;;;;;;;;;;;;;;12.68;100.00;100710.97;5017359;28;20318;-79
2022/09/13 04:32:25;;;;;;;;;;;;;;;12.90;100.00;100711.38;5023880;28;19921;-80
2022/09/13 04:34:51;;;;;;;;;;;;;;;12.55;100.00;100707.41;5028968;28;20437;-79
2022/09/13 04:37:18;;;;;;;;;;;;;;;12.95;100.00;100707.03;5027869;28;20011;-82
2022/09/13 04:39:44;;;;;;;;;;;;;;;13.38;100.00;100708.00;5030203;28;19921;-79
2022/09/13 04:42:11;;;;;;;;;;;;;;;13.50;100.00;100714.22;5031948;28;20375;-83
2022/09/13 04:44:37;;;;;;;;;;;;;;;13.54;100.00;100714.56;5032342;28;19921;-81
2022/09/13 04:47:04;;;;;;;;;;;;;;;13.42;100.00;100714.50;5032056;28;19921;-79
2022/09/13 04:49:32;;;;;;;;;;;;;;;13.58;100.00;100715.72;5032776;28;19922;-79
2022/09/13 04:51:59;;;;;;;;;;;;;;;13.67;100.00;100717.84;5031985;28;20345;-80
2022/09/13 04:54:26;;;;;;;;;;;;;;;13.53;100.00;100716.44;5033690;28;20344;-80
2022/09/13 04:56:53;;;;;;;;;;;;;;;13.57;100.00;100720.25;5032810;28;19921;-82
2022/09/13 04:59:20;;;;;;;;;;;;;;;13.74;100.00;100728.47;5033908;28;19925;-81
2022/09/13 05:01:46;;;;;;;;;;;;;;;13.23;100.00;100717.16;5041167;28;19927;-78
2022/09/13 05:04:13;;;;;;;;;;;;;;;13.77;100.00;100728.00;5048915;28;20288;-80
2022/09/13 05:06:40;;;;;;;;;;;;;;;14.00;100.00;100721.91;5052632;28;20011;-83
2022/09/13 05:09:07;;;;;;;;;;;;;;;14.12;100.00;100721.94;5051735;28;19927;-81
2022/09/13 05:11:34;;;;;;;;;;;;;;;14.26;100.00;100725.25;5045557;28;19931;-82
2022/09/13 05:14:16;;;;;;;;;;;;;;;14.11;100.00;100728.34;5047731;28;19920;-79
2022/09/13 05:16:51;;;;;;;;;;;;;;;14.63;100.00;100723.22;5044759;28;20285;-78
2022/09/13 05:19:35;;;;;;;;;;;;;;;14.39;100.00;100733.03;5046625;28;20035;-85
2022/09/13 05:22:03;;;;;;;;;;;;;;;14.59;100.00;100733.56;5045973;28;19927;-82
2022/09/13 05:24:29;;;;;;;;;;;;;;;14.34;100.00;100743.59;5050884;28;20295;-79
2022/09/13 05:26:57;;;;;;;;;;;;;;;14.72;100.00;100737.03;5047808;28;19927;-80
2022/09/13 05:29:23;;;;;;;;;;;;;;;14.78;100.00;100734.25;5036247;28;20280;-84
2022/09/13 05:31:50;;;;;;;;;;;;;;;14.85;100.00;100724.22;5044502;28;20108;-82
2022/09/13 05:34:18;;;;;;;;;;;;;;;15.00;100.00;100731.78;5048873;28;19921;-80
2022/09/13 05:36:44;;;;;;;;;;;;;;;15.00;100.00;100733.66;5049353;28;19979;-79
2022/09/13 05:39:16;;;;;;;;;;;;;;;15.15;100.00;100743.84;5042756;28;19932;-82
2022/09/13 05:41:43;;;;;;;;;;;;;;;15.08;100.00;100742.13;5043246;28;19925;-78
2022/09/13 05:44:11;;;;;;;;;;;;;;;15.26;100.00;100741.16;5043333;28;19935;-81
2022/09/13 05:46:37;;;;;;;;;;;;;;;15.48;100.00;100746.69;5043554;28;19920;-83
2022/09/13 05:49:05;;;;;;;;;;;;;;;15.75;100.00;100751.50;5054155;28;20004;-81
2022/09/13 05:51:32;;;;;;;;;;;;;;;16.08;100.00;100753.44;5049222;28;19925;-79
2022/09/13 05:53:59;;;;;;;;;;;;;;;15.97;100.00;100763.16;5055601;28;19931;-82
2022/09/13 05:56:29;;;;;;;;;;;;;;;16.13;100.00;100752.75;5051265;28;19920;-82
2022/09/13 05:58:55;;;;;;;;;;;;;;;16.20;100.00;100761.44;5051824;28;20020;-79
2022/09/13 06:01:22;;;;;;;;;;;;;;;16.31;100.00;100757.03;5045181;28;19935;-80
2022/09/13 06:03:49;;;;;;;;;;;;;;;16.53;100.00;100749.91;5047751;28;19991;-82
2022/09/13 06:06:16;;;;;;;;;;;;;;;16.80;100.00;100751.97;5051497;28;19974;-81
2022/09/13 06:08:43;;;;;;;;;;;;;;;17.03;100.00;100757.09;5057211;28;20011;-79
2022/09/13 06:11:11;;;;;;;;;;;;;;;16.67;100.00;100758.41;5054673;28;19935;-82
2022/09/13 06:13:39;;;;;;;;;;;;;;;17.14;100.00;100758.06;5053823;28;19932;-83
2022/09/13 06:16:07;;;;;;;;;;;;;;;16.93;100.00;100765.00;5057693;28;20015;-80
2022/09/13 06:18:34;;;;;;;;;;;;;;;17.08;100.00;100765.22;5050239;28;19921;-81
2022/09/13 06:21:02;;;;;;;;;;;;;;;17.37;100.00;100760.50;5039719;28;19921;-83
2022/09/13 06:23:29;;;;;;;;;;;;;;;17.14;100.00;100763.41;5045643;28;20010;-83
2022/09/13 06:26:02;;;;;;;;;;;;;;;17.56;100.00;100761.00;5044234;28;19920;-79
2022/09/13 06:28:28;;;;;;;;;;;;;;;17.42;100.00;100762.44;5050882;28;19921;-80
2022/09/13 06:31:01;;;;;;;;;;;;;;;17.70;100.00;100763.28;5054450;28;19921;-82
2022/09/13 06:33:27;;;;;;;;;;;;;;;17.61;100.00;100769.13;5046483;28;20372;-79
2022/09/13 06:35:54;;;;;;;;;;;;;;;17.71;100.00;100767.59;5048877;28;19921;-80
2022/09/13 06:38:20;;;;;;;;;;;;;;;18.19;100.00;100765.97;5044353;28;20001;-83
2022/09/13 06:40:47;;;;;;;;;;;;;;;18.13;100.00;100767.78;5045644;28;19986;-84
2022/09/13 06:43:14;;;;;;;;;;;;;;;17.60;100.00;100772.03;5047630;28;19921;-84
2022/09/13 06:45:41;;;;;;;;;;;;;;;18.29;100.00;100774.13;5050404;28;20012;-83
2022/09/13 06:48:09;;;;;;;;;;;;;;;18.33;100.00;100771.72;5045472;28;20039;-84
2022/09/13 06:50:45;;;;;;;;;;;;;;;18.34;100.00;100784.13;5040477;28;19925;-87
2022/09/13 06:53:12;;;;;;;;;;;;;;;18.29;100.00;100785.69;5046488;28;19989;-83
2022/09/13 06:55:39;;;;;;;;;;;;;;;18.45;100.00;100796.56;5048969;28;20004;-83
2022/09/13 06:58:06;;;;;;;;;;;;;;;18.12;100.00;100793.03;5049431;28;20460;-83
2022/09/13 07:00:32;;;;;;;;;;;;;;;18.54;100.00;100786.94;5047845;28;19925;-80
2022/09/13 07:02:59;;;;;;;;;;;;;;;18.81;100.00;100792.28;5054271;28;19999;-79
2022/09/13 07:05:27;;;;;;;;;;;;;;;18.67;100.00;100791.91;5055035;28;20353;-81
2022/09/13 07:07:53;;;;;;;;;;;;;;;18.75;100.00;100796.81;5051696;28;20012;-81
2022/09/13 07:10:20;;;;;;;;;;;;;;;18.56;100.00;100792.09;5050722;28;19951;-78
2022/09/13 07:12:46;;;;;;;;;;;;;;;18.63;100.00;100795.34;5054841;28;19990;-79
2022/09/13 07:15:13;;;;;;;;;;;;;;;19.44;100.00;100792.38;5054874;28;20006;-79
2022/09/13 07:17:39;;;;;;;;;;;;;;;19.32;100.00;100789.09;5052205;28;19982;-82
2022/09/13 07:20:07;;;;;;;;;;;;;;;18.44;100.00;100793.06;5053756;28;20000;-81
2022/09/13 07:22:35;;;;;;;;;;;;;;;19.34;100.00;100793.16;5055375;28;19921;-78
2022/09/13 07:25:02;;;;;;;;;;;;;;;19.61;100.00;100789.50;5052681;28;19990;-78
2022/09/13 07:27:28;;;;;;;;;;;;;;;19.38;100.00;100791.53;5052267;28;19920;-79
2022/09/13 07:29:56;;;;;;;;;;;;;;;19.36;100.00;100793.69;5054128;28;19968;-78
2022/09/13 07:32:23;;;;;;;;;;;;;;;19.68;100.00;100790.06;5053856;28;19921;-80
2022/09/13 07:34:49;;;;;;;;;;;;;;;20.23;100.00;100796.66;5053563;28;19982;-82
2022/09/13 07:37:16;;;;;;;;;;;;;;;20.61;100.00;100789.16;5054460;28;19920;-81
2022/09/13 07:39:44;;;;;;;;;;;;;;;20.38;100.00;100801.25;5054674;28;19925;-78
2022/09/13 07:42:10;;;;;;;;;;;;;;;20.09;100.00;100804.47;5055272;28;19932;-79
2022/09/13 07:44:37;;;;;;;;;;;;;;;20.51;100.00;100799.91;5052579;28;19986;-82
2022/09/13 07:47:05;;;;;;;;;;;;;;;21.25;100.00;100793.06;5051867;28;19932;-81
2022/09/13 07:49:31;;;;;;;;;;;;;;;21.56;100.00;100795.69;5051901;28;19925;-81
2022/09/13 07:51:58;;;;;;;;;;;;;;;20.24;100.00;100797.47;5044106;28;19924;-78
2022/09/13 07:54:29;;;;;;;;;;;;;;;21.28;100.00;100789.81;5038787;28;19925;-83
2022/09/13 07:56:57;;;;;;;;;;;;;;;21.79;100.00;100788.81;5046979;28;19928;-81
2022/09/13 07:59:24;;;;;;;;;;;;;;;22.01;100.00;100785.72;5043236;28;19932;-82
2022/09/13 08:01:51;;;;;;;;;;;;;;;21.43;100.00;100784.38;5043355;28;19925;-81
2022/09/13 08:04:18;;;;;;;;;;;;;;;21.66;100.00;100780.22;5048526;28;19920;-83
2022/09/13 08:06:48;;;;;;;;;;;;;;;22.55;100.00;100776.66;5043368;28;20357;-79
2022/09/13 08:09:18;;;;;;;;;;;;;;;22.35;100.00;100773.03;5039781;28;19927;-82
2022/09/13 08:11:45;;;;;;;;;;;;;;;22.26;100.00;100774.72;5042274;28;20309;-79
2022/09/13 08:14:14;;;;;;;;;;;;;;;22.02;100.00;100774.59;5046461;28;19925;-79
2022/09/13 08:16:41;;;;;;;;;;;;;;;22.28;100.00;100777.16;5046516;28;20103;-82
2022/09/13 08:19:08;;;;;;;;;;;;;;;20.53;100.00;100776.19;5043515;28;20359;-79
2022/09/13 08:21:36;;;;;;;;;;;;;;;20.68;100.00;100776.19;5037557;28;19920;-83
2022/09/13 08:24:02;;;;;;;;;;;;;;;20.90;100.00;100765.06;5046047;28;19920;-78
2022/09/13 08:26:30;;;;;;;;;;;;;;;22.28;100.00;100766.34;5046050;28;19920;-84
2022/09/13 08:28:57;;;;;;;;;;;;;;;21.88;100.00;100757.41;5044558;28;19924;-79
2022/09/13 08:31:27;;;;;;;;;;;;;;;22.41;100.00;100749.44;5045104;28;20008;-82
2022/09/13 08:33:56;;;;;;;;;;;;;;;22.04;100.00;100750.78;5048355;28;19968;-83
2022/09/13 08:36:26;;;;;;;;;;;;;;;22.52;100.00;100748.28;5041455;28;19935;-82
2022/09/13 08:38:54;;;;;;;;;;;;;;;21.81;100.00;100746.09;5044250;28;20353;-82
2022/09/13 08:41:40;;;;;;;;;;;;;;;22.63;100.00;100754.38;5046102;28;19946;-83
2022/09/13 08:44:12;;;;;;;;;;;;;;;24.42;100.00;100755.63;5023409;28;19936;-81
2022/09/13 08:46:43;;;;;;;;;;;;;;;23.13;100.00;100748.75;5043676;28;19925;-78
2022/09/13 08:49:18;;;;;;;;;;;;;;;23.20;100.00;100747.28;5048755;28;19920;-81
2022/09/13 08:51:46;;;;;;;;;;;;;;;23.97;100.00;100743.56;5044030;28;19959;-78
2022/09/13 08:54:13;;;;;;;;;;;;;;;22.66;100.00;100745.69;5047902;28;20011;-82
2022/09/13 08:56:42;;;;;;;;;;;;;;;23.49;100.00;100749.91;5041341;28;19928;-81
2022/09/13 08:59:22;;;;;;;;;;;;;;;24.28;100.00;100745.78;5044691;28;20276;-78
2022/09/13 09:02:00;;;;;;;;;;;;;;;24.38;100.00;100751.84;5044895;28;20320;-78
2022/09/13 09:04:34;;;;;;;;;;;;;;;24.11;100.00;100749.84;5045520;28;20027;-82
2022/09/13 09:07:04;;;;;;;;;;;;;;;22.37;100.00;100751.13;5039784;28;19921;-79
2022/09/13 09:09:32;;;;;;;;;;;;;;;23.61;100.00;100746.78;5039080;28;19921;-77
2022/09/13 09:12:03;;;;;;;;;;;;;;;22.70;100.00;100746.75;5049967;28;20349;-81
2022/09/13 09:14:34;;;;;;;;;;;;;;;23.76;100.00;100735.75;5043118;28;19982;-80
2022/09/13 09:17:06;;;;;;;;;;;;;;;23.16;100.00;100730.00;5037943;28;19982;-82
2022/09/13 09:19:34;;;;;;;;;;;;;;;23.93;91.42;100726.25;5034051;28;19956;-82
2022/09/13 09:22:04;;;;;;;;;;;;;;;22.53;94.55;100724.72;5037662;28;20281;-82
2022/09/13 09:24:35;;;;;;;;;;;;;;;24.16;100.00;100732.69;5038280;28;19921;-78
2022/09/13 09:27:02;;;;;;;;;;;;;;;23.90;79.80;100716.81;5042878;28;19920;-77
2022/09/13 09:29:31;;;;;;;;;;;;;;;24.23;89.75;100712.19;5044565;28;19924;-78
2022/09/13 09:32:17;;;;;;;;;;;;;;;25.43;80.28;100696.09;5049661;28;20383;-81
2022/09/13 09:34:50;;;;;;;;;;;;;;;24.76;76.34;100705.59;5046427;28;19947;-78
2022/09/13 09:37:20;;;;;;;;;;;;;;;25.44;92.19;100692.25;5049958;28;19976;-82
2022/09/13 09:39:48;;;;;;;;;;;;;;;24.18;76.28;100703.38;5047331;28;19931;-78
2022/09/13 09:42:16;;;;;;;;;;;;;;;24.57;95.05;100699.41;5040442;28;19925;-81
2022/09/13 09:44:46;;;;;;;;;;;;;;;24.21;71.70;100694.63;5041549;28;20059;-79
2022/09/13 09:47:16;;;;;;;;;;;;;;;24.78;68.02;100699.84;5042103;28;19964;-81
2022/09/13 09:52:33;;;;;;;;;;;;;;;24.13;62.23;100689.88;5047309;28;19927;-79
2022/09/13 09:55:07;;;;;;;;;;;;;;;24.79;73.41;100704.97;5045396;28;20006;-83
2022/09/13 09:57:54;;;;;;;;;;;;;;;26.47;66.53;100691.38;5049470;28;19932;-83
2022/09/13 10:00:22;;;;;;;;;;;;;;;25.80;58.17;100678.63;5050829;28;19920;-81
2022/09/13 10:02:52;;;;;;;;;;;;;;;25.88;54.90;100677.13;5050407;28;20326;-83
2022/09/13 10:05:22;;;;;;;;;;;;;;;24.83;52.39;100686.97;5049248;28;19925;-78
2022/09/13 10:07:54;;;;;;;;;;;;;;;25.57;60.10;100678.63;5050800;28;19956;-79
2022/09/13 10:10:30;;;;;;;;;;;;;;;23.53;57.05;100685.88;5050955;28;19959;-79
2022/09/13 10:12:58;;;;;;;;;;;;;;;25.27;55.22;100684.75;5050292;28;19921;-80
2022/09/13 10:15:28;;;;;;;;;;;;;;;25.66;74.29;100677.88;5048568;28;19952;-82
2022/09/13 10:18:06;;;;;;;;;;;;;;;25.88;51.32;100672.47;5044689;28;19928;-79
2022/09/13 10:20:33;;;;;;;;;;;;;;;24.91;49.57;100677.31;5040120;28;20288;-84
2022/09/13 10:23:17;;;;;;;;;;;;;;;25.34;57.43;100677.78;5049075;28;19964;-79
2022/09/13 10:25:45;;;;;;;;;;;;;;;25.67;55.51;100665.91;5039587;28;19921;-80
2022/09/13 10:28:16;;;;;;;;;;;;;;;25.88;47.91;100658.88;5042495;28;19935;-80
2022/09/13 10:30:52;;;;;;;;;;;;;;;24.34;65.80;100665.91;5049522;28;20007;-81
2022/09/13 10:33:25;;;;;;;;;;;;;;;26.35;47.58;100656.56;5048335;28;20000;-80
2022/09/13 10:35:53;;;;;;;;;;;;;;;25.94;44.83;100654.91;5053520;28;20351;-84
2022/09/13 10:38:24;;;;;;;;;;;;;;;26.38;46.57;100655.94;5046578;28;19932;-83
2022/09/13 10:40:50;;;;;;;;;;;;;;;25.10;48.51;100650.81;5047221;28;19986;-79
2022/09/13 10:43:18;;;;;;;;;;;;;;;27.24;43.95;100643.75;5050265;28;19921;-80
2022/09/13 10:45:50;;;;;;;;;;;;;;;24.86;47.42;100648.34;5049628;28;19960;-80
2022/09/13 10:48:25;;;;;;;;;;;;;;;27.40;43.28;100639.41;5046013;28;19921;-79
2022/09/13 10:51:02;;;;;;;;;;;;;;;26.39;47.46;100646.69;5042763;28;19921;-83
2022/09/13 10:53:36;;;;;;;;;;;;;;;27.12;42.19;100638.09;5037573;28;20309;-84
2022/09/13 10:56:05;;;;;;;;;;;;;;;25.81;48.85;100636.72;5041396;28;19998;-80
2022/09/13 10:58:31;;;;;;;;;;;;;;;26.88;58.57;100627.63;5051368;28;19927;-84
2022/09/13 11:01:12;;;;;;;;;;;;;;;27.41;46.53;100637.47;5042714;28;19931;-84
2022/09/13 11:03:51;;;;;;;;;;;;;;;26.39;39.78;100641.22;5045775;28;20087;-80
2022/09/13 11:06:27;;;;;;;;;;;;;;;25.54;44.18;100632.22;5042294;28;19924;-80
2022/09/13 11:09:01;;;;;;;;;;;;;;;25.99;49.41;100627.59;5052168;28;20269;-83
2022/09/13 11:11:34;;;;;;;;;;;;;;;25.88;46.95;100626.22;5047572;28;20019;-79
2022/09/13 11:14:09;;;;;;;;;;;;;;;25.82;40.49;100619.31;5048079;28;19928;-80
2022/09/13 11:16:49;;;;;;;;;;;;;;;26.70;42.23;100618.63;5051830;28;20384;-83
2022/09/13 11:19:36;;;;;;;;;;;;;;;25.46;44.90;100622.06;5048995;28;19920;-86
2022/09/13 11:22:21;;;;;;;;;;;;;;;25.76;47.73;100628.69;5052452;28;19929;-80
2022/09/13 11:25:08;;;;;;;;;;;;;;;26.64;40.44;100620.69;5050418;28;20010;-84
2022/09/13 11:27:43;;;;;;;;;;;;;;;27.39;42.75;100616.00;5053432;28;19925;-79
2022/09/13 11:30:12;;;;;;;;;;;;;;;26.69;44.33;100617.81;5054147;28;19928;-82
2022/09/13 11:32:46;;;;;;;;;;;;;;;26.06;55.75;100623.63;5053508;28;19928;-79
2022/09/13 11:35:21;;;;;;;;;;;;;;;25.68;42.81;100622.06;5054796;28;19976;-84
2022/09/13 11:37:56;;;;;;;;;;;;;;;26.30;42.85;100613.16;5054053;28;19920;-84
2022/09/13 11:40:28;;;;;;;;;;;;;;;26.33;40.97;100615.25;5042673;28;19983;-79
2022/09/13 11:43:02;;;;;;;;;;;;;;;26.44;40.20;100604.88;5048042;28;19937;-78
2022/09/13 11:45:30;;;;;;;;;;;;;;;25.66;40.96;100596.28;5045497;28;19986;-78
2022/09/13 11:48:16;;;;;;;;;;;;;;;28.23;37.14;100594.66;5042490;28;19921;-83
2022/09/13 11:50:49;;;;;;;;;;;;;;;26.85;40.95;100606.47;5048194;28;20396;-78
2022/09/13 11:53:24;;;;;;;;;;;;;;;27.06;40.69;100604.72;5053299;28;19920;-82
2022/09/13 11:55:54;;;;;;;;;;;;;;;27.10;41.49;100602.97;5050492;28;19993;-79
2022/09/13 11:58:26;;;;;;;;;;;;;;;26.18;39.94;100604.78;5050863;28;19986;-82
2022/09/13 12:00:55;;;;;;;;;;;;;;;26.85;43.03;100593.66;5054266;28;19920;-79
2022/09/13 12:03:25;;;;;;;;;;;;;;;27.46;42.19;100587.44;5052796;28;19979;-82
2022/09/13 12:05:54;;;;;;;;;;;;;;;27.30;37.78;100587.13;5048616;28;19947;-79
2022/09/13 12:08:25;;;;;;;;;;;;;;;28.00;37.79;100591.34;5052069;28;19929;-83
2022/09/13 12:11:01;;;;;;;;;;;;;;;26.40;38.52;100591.09;5049405;28;19920;-83
2022/09/13 12:13:30;;;;;;;;;;;;;;;27.90;36.65;100586.25;5049573;28;19921;-81
2022/09/13 12:16:03;;;;;;;;;;;;;;;27.52;48.77;100583.41;5052501;28;19928;-79
2022/09/13 12:18:32;;;;;;;;;;;;;;;27.25;39.26;100584.56;5047967;28;19924;-81
2022/09/13 12:21:08;;;;;;;;;;;;;;;25.66;40.52;100588.97;5052492;28;19924;-79
2022/09/13 12:23:39;;;;;;;;;;;;;;;26.98;46.08;100582.91;5051166;28;20044;-79
2022/09/13 12:26:10;;;;;;;;;;;;;;;26.09;52.69;100587.63;5052218;28;19924;-79
2022/09/13 12:28:42;;;;;;;;;;;;;;;26.56;43.95;100585.25;5052999;28;19920;-81
2022/09/13 12:31:18;;;;;;;;;;;;;;;26.13;38.13;100597.56;5049913;28;20014;-83
2022/09/13 12:33:48;;;;;;;;;;;;;;;27.16;37.44;100584.56;5052165;28;19982;-81
2022/09/13 12:36:35;;;;;;;;;;;;;;;25.74;37.10;100593.63;5054167;28;20281;-78
2022/09/13 12:39:13;;;;;;;;;;;;;;;26.46;38.14;100578.16;5052846;28;19936;-82
2022/09/13 12:41:52;;;;;;;;;;;;;;;28.35;32.61;100574.81;5054138;28;20007;-85
2022/09/13 12:44:40;;;;;;;;;;;;;;;27.37;37.18;100585.50;5053250;28;19921;-80
2022/09/13 12:47:24;;;;;;;;;;;;;;;27.15;37.11;100572.06;5051188;28;20387;-78
2022/09/13 12:50:00;;;;;;;;;;;;;;;25.56;36.58;100576.41;5050803;28;19925;-81
2022/09/13 12:52:31;;;;;;;;;;;;;;;26.80;38.73;100574.72;5051774;28;19925;-78